Time;durP1;ratioP1;P1;durP2;ratioP2;P2;SDS_P1;SDS_P2;PMS_P1;PMS_P2;Temp;Humidity;BMP_temperature;BMP_pressure;BME280_temperature;BME280_humidity;BME280_pressure;Samples;Min_cycle;Max_cycle;Signal;HPM_P1;HPM_P2
2023/07/14 00:01:18;;;;;;;4.50;0.90;;;;;;;17.18;90.68;101278.06;5016572;28;20539;-71
2023/07/14 00:03:45;;;;;;;6.13;1.07;;;;;;;17.12;91.68;101279.38;5016234;28;20458;-70
2023/07/14 00:06:12;;;;;;;4.57;0.97;;;;;;;17.06;92.57;101276.00;5016787;28;20456;-71
2023/07/14 00:08:40;;;;;;;5.43;1.33;;;;;;;17.05;92.25;101285.38;5015839;28;20890;-70
2023/07/14 00:11:12;;;;;;;5.50;1.40;;;;;;;17.00;92.32;101276.50;5016180;28;20537;-70
2023/07/14 00:13:39;;;;;;;5.23;1.03;;;;;;;16.95;92.56;101271.22;5024169;28;20536;-69
2023/07/14 00:16:12;;;;;;;4.90;0.97;;;;;;;16.88;93.03;101261.59;5020556;28;20448;-69
2023/07/14 00:18:39;;;;;;;5.00;1.00;;;;;;;16.85;93.00;101266.91;5035235;28;20980;-69
2023/07/14 00:21:06;;;;;;;5.50;1.50;;;;;;;16.80;93.51;101267.09;5034744;28;20482;-69
2023/07/14 00:23:32;;;;;;;4.90;1.10;;;;;;;16.68;94.13;101255.97;5027760;28;20590;-69
2023/07/14 00:25:59;;;;;;;6.77;1.33;;;;;;;16.59;94.03;101264.19;5017043;28;20448;-68
2023/07/14 00:28:27;;;;;;;5.43;1.30;;;;;;;16.53;93.88;101260.84;5016731;28;20491;-69
2023/07/14 00:30:53;;;;;;;5.40;1.50;;;;;;;16.47;95.18;101264.06;5031098;28;20474;-69
2023/07/14 00:33:20;;;;;;;5.33;1.30;;;;;;;16.50;95.19;101263.41;5032086;28;20501;-69
2023/07/14 00:35:48;;;;;;;4.80;1.10;;;;;;;16.49;95.04;101259.06;5035482;28;20529;-68
2023/07/14 00:38:15;;;;;;;5.50;1.37;;;;;;;16.39;95.17;101265.69;5025429;28;20494;-69
2023/07/14 00:40:43;;;;;;;5.47;1.40;;;;;;;16.36;94.81;101266.31;5034651;28;20454;-69
2023/07/14 00:43:15;;;;;;;5.00;0.90;;;;;;;16.29;95.50;101258.63;5026700;28;20460;-69
2023/07/14 00:45:44;;;;;;;5.07;1.00;;;;;;;16.27;96.27;101265.53;5021239;28;20497;-69
2023/07/14 00:48:15;;;;;;;5.43;1.37;;;;;;;16.26;95.66;101261.19;5031246;28;20514;-69
2023/07/14 00:50:43;;;;;;;4.80;1.10;;;;;;;16.23;95.62;101268.09;5034946;28;20451;-69
2023/07/14 00:53:15;;;;;;;5.20;1.47;;;;;;;16.19;95.29;101267.13;5030005;28;20463;-70
2023/07/14 00:55:44;;;;;;;5.80;1.47;;;;;;;16.14;95.52;101264.56;5031723;28;20455;-69
2023/07/14 00:58:17;;;;;;;5.43;1.30;;;;;;;16.11;95.71;101268.75;5030233;28;20550;-70
2023/07/14 01:01:03;;;;;;;5.00;1.10;;;;;;;16.05;95.85;101263.78;5028630;28;20545;-69
2023/07/14 01:03:30;;;;;;;4.90;1.20;;;;;;;16.03;95.68;101263.28;5026791;28;20458;-69
2023/07/14 01:05:59;;;;;;;6.00;1.60;;;;;;;15.97;96.03;101256.38;5021721;28;20463;-69
2023/07/14 01:08:27;;;;;;;5.40;1.37;;;;;;;15.91;96.07;101263.13;5029063;28;20497;-69
2023/07/14 01:10:55;;;;;;;4.80;1.07;;;;;;;15.87;96.49;101262.94;5027304;28;20555;-69
2023/07/14 01:13:24;;;;;;;5.00;1.17;;;;;;;15.91;95.87;101257.66;5028927;28;20463;-70
2023/07/14 01:15:52;;;;;;;5.63;1.47;;;;;;;15.77;96.65;101257.81;5032708;28;20463;-69
2023/07/14 01:18:20;;;;;;;6.07;1.60;;;;;;;15.77;96.67;101263.28;5023783;28;20463;-69
2023/07/14 01:20:47;;;;;;;5.57;1.40;;;;;;;15.77;96.52;101258.59;5032683;28;20483;-69
2023/07/14 01:23:33;;;;;;;4.80;1.17;;;;;;;15.78;97.07;101262.94;5024838;28;20554;-69
2023/07/14 01:26:13;;;;;;;5.13;1.20;;;;;;;15.74;96.56;101261.16;5025913;28;20469;-69
2023/07/14 01:28:42;;;;;;;5.50;1.50;;;;;;;15.74;96.20;101258.44;5030993;28;20478;-69
2023/07/14 01:31:12;;;;;;;5.67;1.20;;;;;;;15.66;96.82;101262.75;5030033;28;20479;-69
2023/07/14 01:33:38;;;;;;;5.50;1.40;;;;;;;15.59;97.49;101262.41;5029547;28;20490;-69
2023/07/14 01:36:06;;;;;;;5.40;1.00;;;;;;;15.56;98.01;101258.38;5018631;28;20443;-69
2023/07/14 01:38:33;;;;;;;7.20;1.67;;;;;;;15.52;97.68;101267.50;5023033;28;20987;-69
2023/07/14 01:41:01;;;;;;;5.67;1.37;;;;;;;15.55;94.21;101269.63;5031261;28;20490;-68
2023/07/14 01:43:28;;;;;;;5.60;1.30;;;;;;;15.54;93.11;101266.09;5031869;28;20843;-69
2023/07/14 01:45:58;;;;;;;5.33;1.43;;;;;;;15.47;92.60;101262.22;5032280;28;20473;-69
2023/07/14 01:48:30;;;;;;;5.87;1.63;;;;;;;15.45;94.51;101259.81;5020384;28;21007;-69
2023/07/14 01:51:00;;;;;;;5.10;1.30;;;;;;;15.37;96.47;101258.66;5031690;28;20486;-70
2023/07/14 01:53:31;;;;;;;5.37;1.30;;;;;;;15.40;97.07;101273.56;5030473;28;20489;-69
2023/07/14 01:56:02;;;;;;;5.20;1.17;;;;;;;15.35;97.52;101271.78;5024333;28;20455;-69
2023/07/14 01:58:33;;;;;;;5.20;1.40;;;;;;;15.40;97.28;101270.84;5028943;28;20550;-69
2023/07/14 02:01:03;;;;;;;6.77;1.70;;;;;;;15.32;97.76;101269.72;5025275;28;20488;-69
2023/07/14 02:03:33;;;;;;;6.17;1.43;;;;;;;15.32;97.75;101269.72;5030337;28;20467;-69
2023/07/14 02:06:00;;;;;;;5.20;1.40;;;;;;;15.24;97.92;101284.13;5031610;28;20826;-69
2023/07/14 02:08:27;;;;;;;6.20;1.50;;;;;;;15.24;98.54;101277.88;5032375;28;20486;-69
2023/07/14 02:10:54;;;;;;;6.33;1.60;;;;;;;15.21;98.42;101279.28;5025138;28;20931;-70
2023/07/14 02:13:22;;;;;;;5.27;1.23;;;;;;;15.24;97.51;101275.94;5026822;28;20498;-70
2023/07/14 02:15:49;;;;;;;6.17;1.57;;;;;;;15.20;97.52;101277.69;5031387;28;20459;-70
2023/07/14 02:18:22;;;;;;;5.57;1.40;;;;;;;15.12;98.03;101271.06;5016228;28;20464;-70
2023/07/14 02:20:50;;;;;;;6.33;1.57;;;;;;;15.10;97.96;101272.53;5019027;28;20529;-70
2023/07/14 02:23:20;;;;;;;4.90;1.00;;;;;;;15.05;98.42;101278.94;5030900;28;20497;-69
2023/07/14 02:25:52;;;;;;;6.03;1.50;;;;;;;15.05;97.91;101286.28;5028348;28;20463;-70
2023/07/14 02:28:19;;;;;;;6.33;1.60;;;;;;;15.03;97.73;101296.72;5031477;28;20478;-69
2023/07/14 02:30:51;;;;;;;5.00;1.27;;;;;;;15.03;97.79;101299.44;5032002;28;21092;-69
2023/07/14 02:33:25;;;;;;;6.57;1.70;;;;;;;15.10;96.70;101305.28;5031286;28;20459;-69
2023/07/14 02:36:01;;;;;;;5.73;1.10;;;;;;;15.05;96.48;101308.09;5032103;28;20458;-70
2023/07/14 02:38:28;;;;;;;5.60;1.33;;;;;;;15.02;97.41;101306.81;5034431;28;20442;-69
2023/07/14 02:41:00;;;;;;;6.50;1.50;;;;;;;15.00;97.93;101310.97;5020467;28;21083;-69
2023/07/14 02:43:27;;;;;;;5.33;1.40;;;;;;;14.98;97.87;101303.13;5021108;28;20964;-69
2023/07/14 02:45:56;;;;;;;6.43;1.87;;;;;;;15.01;98.06;101305.22;5027485;28;20462;-68
2023/07/14 02:48:29;;;;;;;5.20;1.30;;;;;;;15.02;97.74;101308.75;5030877;28;20489;-69
2023/07/14 02:50:56;;;;;;;5.90;1.80;;;;;;;15.03;97.74;101304.91;5030001;28;20531;-70
2023/07/14 02:53:23;;;;;;;7.03;1.53;;;;;;;14.98;98.16;101311.28;5029239;28;20521;-69
2023/07/14 02:55:49;;;;;;;5.10;1.30;;;;;;;14.92;98.62;101309.81;5032626;28;20959;-69
2023/07/14 02:58:17;;;;;;;5.87;1.77;;;;;;;14.96;98.25;101309.97;5030907;28;20459;-69
2023/07/14 03:00:44;;;;;;;5.87;1.57;;;;;;;15.00;97.93;101316.44;5030527;28;20558;-70
2023/07/14 03:03:10;;;;;;;6.07;1.80;;;;;;;15.03;97.64;101313.09;5024565;28;20490;-69
2023/07/14 03:05:38;;;;;;;5.50;1.70;;;;;;;15.03;98.50;101313.09;5031456;28;20443;-70
2023/07/14 03:08:07;;;;;;;5.70;1.50;;;;;;;15.03;98.69;101321.28;5028862;28;20487;-69
2023/07/14 03:10:34;;;;;;;5.43;1.50;;;;;;;15.10;98.37;101321.63;5012705;28;20857;-69
2023/07/14 03:13:01;;;;;;;4.83;1.00;;;;;;;15.11;97.93;101312.31;5029964;28;20491;-69
2023/07/14 03:15:27;;;;;;;5.80;1.40;;;;;;;15.15;98.03;101321.50;5027768;28;20514;-69
2023/07/14 03:17:54;;;;;;;6.80;1.73;;;;;;;15.17;98.71;101321.19;5024413;28;20831;-69
2023/07/14 03:20:20;;;;;;;6.50;1.83;;;;;;;15.20;98.63;101321.38;5018232;28;20452;-69
2023/07/14 03:22:48;;;;;;;6.80;1.70;;;;;;;15.22;98.68;101324.56;5019032;28;20511;-69
2023/07/14 03:25:15;;;;;;;5.60;1.63;;;;;;;15.25;98.52;101325.88;5026792;28;20486;-69
2023/07/14 03:27:43;;;;;;;5.53;1.70;;;;;;;15.32;98.43;101331.69;5033505;28;20490;-70
2023/07/14 03:30:11;;;;;;;6.37;1.67;;;;;;;15.38;98.26;101322.25;5027566;28;20468;-69
2023/07/14 03:32:37;;;;;;;6.93;2.00;;;;;;;15.43;98.81;101332.22;5025646;28;20471;-70
2023/07/14 03:35:04;;;;;;;6.10;1.90;;;;;;;15.47;98.83;101319.53;5031265;28;20491;-70
2023/07/14 03:37:31;;;;;;;6.57;1.90;;;;;;;15.51;99.80;101324.06;5019453;28;20462;-70
2023/07/14 03:39:59;;;;;;;9.33;1.97;;;;;;;15.50;99.51;101321.66;5040591;28;20494;-71
2023/07/14 03:42:26;;;;;;;6.17;1.77;;;;;;;15.46;100.00;101321.47;5031532;28;20506;-70
2023/07/14 03:44:53;;;;;;;5.47;1.67;;;;;;;15.54;100.00;101325.38;5033359;28;20832;-73
2023/07/14 03:47:19;;;;;;;6.23;1.90;;;;;;;15.57;100.00;101327.44;5030030;28;20491;-69
2023/07/14 03:49:46;;;;;;;7.07;1.83;;;;;;;15.61;100.00;101320.22;5034752;28;20449;-69
2023/07/14 03:52:13;;;;;;;7.00;2.07;;;;;;;15.60;100.00;101318.63;5034666;28;20505;-69
2023/07/14 03:54:40;;;;;;;5.53;1.67;;;;;;;15.63;100.00;101313.34;5026156;28;20485;-69
2023/07/14 03:57:08;;;;;;;7.73;2.17;;;;;;;15.60;100.00;101319.44;5033352;28;20499;-70
2023/07/14 03:59:34;;;;;;;5.60;1.60;;;;;;;15.63;99.86;101315.28;5030888;28;20459;-70
2023/07/14 04:02:01;;;;;;;5.97;2.03;;;;;;;15.62;100.00;101316.38;5025197;28;20490;-70
2023/07/14 04:04:29;;;;;;;5.77;1.70;;;;;;;15.62;100.00;101310.91;5033522;28;20561;-70
2023/07/14 04:06:57;;;;;;;5.50;1.50;;;;;;;15.63;100.00;101310.59;5033783;28;20502;-70
2023/07/14 04:09:24;;;;;;;5.40;1.43;;;;;;;15.66;100.00;101322.84;5034610;28;20483;-71
2023/07/14 04:11:51;;;;;;;6.23;1.60;;;;;;;15.68;100.00;101315.16;5027282;28;20928;-69
2023/07/14 04:14:19;;;;;;;6.10;1.77;;;;;;;15.74;99.38;101313.88;5031115;28;20502;-69
2023/07/14 04:16:45;;;;;;;5.30;1.60;;;;;;;15.74;96.01;101313.06;5032048;28;20551;-69
2023/07/14 04:19:12;;;;;;;5.80;1.57;;;;;;;15.72;95.41;101321.59;5033643;28;20551;-69
2023/07/14 04:21:39;;;;;;;5.10;1.50;;;;;;;15.69;93.85;101321.41;5034466;28;20545;-69
2023/07/14 04:24:06;;;;;;;6.63;1.93;;;;;;;15.69;94.22;101333.13;5031467;28;20467;-71
2023/07/14 04:26:33;;;;;;;5.17;1.20;;;;;;;15.71;96.68;101330.88;5019687;28;20460;-70
2023/07/14 04:28:59;;;;;;;7.50;2.23;;;;;;;15.81;98.93;101330.59;5028108;28;20483;-68
2023/07/14 04:31:28;;;;;;;6.00;1.90;;;;;;;15.88;99.87;101330.13;5032768;28;20558;-68
2023/07/14 04:33:55;;;;;;;5.90;1.80;;;;;;;15.93;100.00;101338.16;5032721;28;20467;-69
2023/07/14 04:36:22;;;;;;;5.57;1.93;;;;;;;16.02;100.00;101336.25;5026993;28;20494;-70
2023/07/14 04:39:01;;;;;;;5.50;1.73;;;;;;;16.14;100.00;101338.38;5027252;28;20467;-70
2023/07/14 04:41:28;;;;;;;7.33;2.13;;;;;;;16.18;100.00;101338.53;5034826;28;20913;-70
2023/07/14 04:43:55;;;;;;;5.80;1.80;;;;;;;16.20;99.88;101337.06;5015931;28;20455;-70
2023/07/14 04:46:21;;;;;;;5.40;1.80;;;;;;;16.28;99.32;101349.94;5020789;28;20538;-70
2023/07/14 04:48:50;;;;;;;6.70;2.00;;;;;;;16.33;99.75;101352.53;5025995;28;21000;-70
2023/07/14 04:51:17;;;;;;;5.90;2.00;;;;;;;16.38;98.78;101355.13;5018271;28;20490;-70
2023/07/14 04:53:44;;;;;;;8.53;2.20;;;;;;;16.44;98.51;101346.75;5034667;28;20450;-70
2023/07/14 04:56:11;;;;;;;6.67;1.90;;;;;;;16.47;97.58;101351.56;5026970;28;20526;-70
2023/07/14 04:58:38;;;;;;;6.50;2.30;;;;;;;16.57;97.98;101348.53;5031945;28;20470;-70
2023/07/14 05:01:04;;;;;;;12.00;2.03;;;;;;;16.60;97.87;101348.69;5034910;28;20470;-70
2023/07/14 05:03:31;;;;;;;6.57;2.20;;;;;;;16.68;97.08;101341.59;5041444;28;20466;-70
2023/07/14 05:05:59;;;;;;;6.30;2.20;;;;;;;16.76;95.97;101349.00;5029433;28;20451;-70
2023/07/14 05:08:25;;;;;;;7.20;1.63;;;;;;;16.86;96.21;101353.34;5015056;28;20919;-70
2023/07/14 05:10:52;;;;;;;6.10;1.47;;;;;;;16.94;95.80;101352.53;5025948;28;20463;-70
2023/07/14 05:13:19;;;;;;;7.50;1.83;;;;;;;16.99;95.39;101357.81;5034445;28;20884;-70
2023/07/14 05:15:45;;;;;;;6.97;1.83;;;;;;;17.07;95.33;101356.19;5039411;28;20447;-70
2023/07/14 05:18:13;;;;;;;6.63;1.80;;;;;;;17.14;94.52;101359.25;5041527;28;20812;-71
2023/07/14 05:20:40;;;;;;;6.53;2.00;;;;;;;17.16;94.40;101356.97;5042940;28;20851;-70
2023/07/14 05:23:10;;;;;;;7.40;2.33;;;;;;;17.21;94.52;101359.53;5042487;28;20443;-70
2023/07/14 05:25:37;;;;;;;5.70;1.73;;;;;;;17.26;94.76;101356.63;5038415;28;20459;-70
2023/07/14 05:28:04;;;;;;;5.10;1.37;;;;;;;17.34;93.88;101358.53;5045057;28;20485;-70
2023/07/14 05:30:31;;;;;;;5.60;1.60;;;;;;;17.38;94.14;101348.53;5046300;28;20471;-70
2023/07/14 05:32:58;;;;;;;5.20;1.40;;;;;;;17.45;92.77;101347.22;5044103;28;20454;-71
2023/07/14 05:35:25;;;;;;;6.33;2.10;;;;;;;17.52;92.41;101355.72;5039215;28;20530;-71
2023/07/14 05:37:53;;;;;;;7.50;1.70;;;;;;;17.55;91.92;101352.34;5039521;28;20446;-71
2023/07/14 05:40:21;;;;;;;5.97;2.10;;;;;;;17.58;91.61;101343.47;5045280;28;21015;-71
2023/07/14 05:42:48;;;;;;;5.63;1.60;;;;;;;17.61;91.47;101361.97;5034856;28;20830;-70
2023/07/14 05:45:15;;;;;;;6.07;1.47;;;;;;;17.69;91.55;101343.88;5044134;28;20530;-71
2023/07/14 05:47:45;;;;;;;6.53;1.50;;;;;;;17.77;92.13;101352.09;5036071;28;20483;-71
2023/07/14 05:50:12;;;;;;;5.73;1.30;;;;;;;17.80;91.16;101345.97;5032857;28;20500;-71
2023/07/14 05:52:39;;;;;;;5.90;1.40;;;;;;;17.92;90.48;101349.91;5039003;28;20456;-71
2023/07/14 05:55:06;;;;;;;5.17;1.37;;;;;;;17.99;90.10;101355.69;5046835;28;20450;-71
2023/07/14 05:57:36;;;;;;;6.37;2.00;;;;;;;18.02;88.89;101360.50;5046549;28;20481;-71
2023/07/14 06:00:03;;;;;;;5.40;1.70;;;;;;;18.05;89.62;101354.34;5036616;28;20447;-71
2023/07/14 06:02:30;;;;;;;5.10;1.60;;;;;;;18.10;87.77;101357.69;5044689;28;20471;-72
2023/07/14 06:04:57;;;;;;;8.43;1.40;;;;;;;18.16;87.15;101361.06;5040531;28;20436;-71
2023/07/14 06:07:25;;;;;;;5.80;1.63;;;;;;;18.25;86.90;101366.47;5041024;28;20443;-70
2023/07/14 06:09:51;;;;;;;6.43;1.37;;;;;;;18.32;87.30;101362.03;5043796;28;20487;-70
2023/07/14 06:12:18;;;;;;;6.23;1.77;;;;;;;18.39;86.40;101359.56;5033182;28;20469;-73
2023/07/14 06:14:46;;;;;;;5.60;1.60;;;;;;;18.47;86.67;101362.59;5033179;28;20446;-74
2023/07/14 06:17:13;;;;;;;5.00;1.20;;;;;;;18.55;87.31;101362.53;5037728;28;20442;-73
2023/07/14 06:19:39;;;;;;;6.03;1.70;;;;;;;18.62;85.18;101373.75;5045561;28;20950;-72
2023/07/14 06:22:06;;;;;;;5.73;1.60;;;;;;;18.72;85.15;101374.50;5041376;28;20489;-74
2023/07/14 06:24:35;;;;;;;5.43;1.53;;;;;;;18.80;85.36;101370.88;5038902;28;20441;-72
2023/07/14 06:27:03;;;;;;;5.93;1.50;;;;;;;18.83;84.61;101365.53;5035765;28;20439;-73
2023/07/14 06:29:30;;;;;;;5.53;1.30;;;;;;;18.81;85.41;101361.50;5036695;28;20514;-73
2023/07/14 06:31:58;;;;;;;5.20;1.50;;;;;;;18.85;85.53;101362.44;5038924;28;20486;-72
2023/07/14 06:34:25;;;;;;;8.00;2.07;;;;;;;18.92;84.94;101364.63;5042452;28;20466;-69
2023/07/14 06:36:51;;;;;;;5.13;1.00;;;;;;;18.94;82.44;101360.41;5036031;28;20475;-71
2023/07/14 06:39:19;;;;;;;5.37;1.30;;;;;;;19.00;82.16;101361.81;5036683;28;20440;-70
2023/07/14 06:41:47;;;;;;;4.77;1.23;;;;;;;19.07;80.70;101367.53;5032609;28;20525;-71
2023/07/14 06:44:15;;;;;;;5.70;1.33;;;;;;;19.11;80.88;101368.47;5035884;28;20442;-72
2023/07/14 06:46:41;;;;;;;4.80;0.80;;;;;;;19.15;82.26;101366.63;5045486;28;20873;-70
2023/07/14 06:49:09;;;;;;;5.07;1.23;;;;;;;19.22;80.83;101360.59;5035496;28;20918;-70
2023/07/14 06:51:36;;;;;;;7.37;1.20;;;;;;;19.20;77.95;101360.13;5033712;28;20490;-71
2023/07/14 06:54:03;;;;;;;4.77;1.10;;;;;;;19.31;79.59;101358.56;5034961;28;20517;-71
2023/07/14 06:56:29;;;;;;;5.53;1.50;;;;;;;19.34;78.86;101362.53;5033153;28;20466;-72
2023/07/14 06:58:56;;;;;;;4.50;1.00;;;;;;;19.46;79.27;101361.78;5038731;28;20560;-70
2023/07/14 07:01:22;;;;;;;4.87;1.10;;;;;;;19.57;79.22;101358.25;5038547;28;20459;-69
2023/07/14 07:03:49;;;;;;;5.77;1.53;;;;;;;19.64;76.67;101361.22;5039379;28;20454;-68
2023/07/14 07:06:18;;;;;;;6.20;1.73;;;;;;;19.68;78.28;101361.34;5035571;28;20570;-68
2023/07/14 07:08:45;;;;;;;4.80;1.07;;;;;;;19.72;78.18;101354.03;5036570;28;20475;-69
2023/07/14 07:11:12;;;;;;;4.80;0.93;;;;;;;19.78;76.35;101362.84;5036969;28;20529;-68
2023/07/14 07:13:39;;;;;;;5.00;1.03;;;;;;;19.81;76.66;101362.94;5036647;28;20467;-68
2023/07/14 07:16:06;;;;;;;8.93;1.10;;;;;;;19.88;74.91;101363.19;5032334;28;20447;-68
2023/07/14 07:18:33;;;;;;;5.20;1.17;;;;;;;19.94;76.05;101365.69;5036913;28;20459;-68
2023/07/14 07:21:00;;;;;;;4.40;0.93;;;;;;;20.00;74.91;101358.81;5038455;28;20490;-69
2023/07/14 07:23:28;;;;;;;5.60;1.30;;;;;;;19.95;73.13;101350.78;5041498;28;20470;-68
2023/07/14 07:25:56;;;;;;;4.97;1.00;;;;;;;20.07;73.55;101359.03;5039649;28;20444;-68
2023/07/14 07:28:23;;;;;;;4.70;1.10;;;;;;;20.17;72.44;101364.84;5042400;28;20478;-69
2023/07/14 07:30:50;;;;;;;4.97;0.90;;;;;;;20.20;72.93;101346.06;5041872;28;20834;-68
2023/07/14 07:33:17;;;;;;;4.80;1.30;;;;;;;20.19;70.42;101344.44;5042454;28;20862;-68
2023/07/14 07:35:44;;;;;;;5.73;1.00;;;;;;;20.21;72.31;101353.97;5042453;28;20450;-69
2023/07/14 07:38:11;;;;;;;5.30;1.23;;;;;;;20.28;70.51;101348.69;5042255;28;20823;-68
2023/07/14 07:40:40;;;;;;;4.87;1.07;;;;;;;20.32;69.82;101346.00;5041034;28;20439;-68
2023/07/14 07:43:07;;;;;;;4.90;0.90;;;;;;;20.38;69.75;101347.38;5042279;28;20477;-69
2023/07/14 07:45:34;;;;;;;5.13;1.10;;;;;;;20.35;74.00;101342.56;5049071;28;20442;-68
2023/07/14 07:48:01;;;;;;;4.73;1.00;;;;;;;20.40;71.20;101345.06;5048970;28;20492;-68
2023/07/14 07:50:28;;;;;;;4.50;1.10;;;;;;;20.49;69.34;101347.72;5048427;28;20481;-70
2023/07/14 07:52:55;;;;;;;4.40;1.00;;;;;;;20.59;67.49;101347.22;5048464;28;20504;-72
2023/07/14 07:55:21;;;;;;;4.77;1.17;;;;;;;20.63;66.77;101342.63;5041858;28;21109;-72
2023/07/14 07:57:49;;;;;;;4.97;1.20;;;;;;;20.69;66.79;101345.91;5034879;28;20467;-71
2023/07/14 08:00:16;;;;;;;4.80;1.30;;;;;;;20.74;67.28;101343.72;5039756;28;20487;-71
2023/07/14 08:02:43;;;;;;;4.40;0.90;;;;;;;20.79;65.04;101331.63;5042558;28;20840;-71
2023/07/14 08:05:12;;;;;;;4.80;1.07;;;;;;;20.83;67.78;101341.59;5041275;28;20972;-71
2023/07/14 08:07:38;;;;;;;4.93;1.13;;;;;;;20.89;66.64;101345.72;5040960;28;20438;-71
2023/07/14 08:10:06;;;;;;;4.87;1.17;;;;;;;21.00;66.56;101336.94;5043330;28;20581;-72
2023/07/14 08:12:32;;;;;;;4.83;1.00;;;;;;;21.02;64.85;101337.34;5038082;28;20578;-72
2023/07/14 08:15:00;;;;;;;4.87;1.10;;;;;;;20.99;67.76;101335.34;5036333;28;21134;-71
2023/07/14 08:17:29;;;;;;;4.70;1.03;;;;;;;21.08;67.03;101330.44;5038353;28;20463;-71
2023/07/14 08:19:56;;;;;;;5.03;1.10;;;;;;;21.19;68.50;101326.00;5033580;28;20462;-72
2023/07/14 08:22:25;;;;;;;4.87;1.10;;;;;;;21.32;67.39;101330.31;5024572;28;20497;-72
2023/07/14 08:24:52;;;;;;;5.10;1.10;;;;;;;21.49;65.04;101329.13;5034404;28;20495;-70
2023/07/14 08:27:19;;;;;;;5.53;1.37;;;;;;;21.57;63.87;101330.91;5032592;28;20952;-71
2023/07/14 08:29:46;;;;;;;4.33;0.90;;;;;;;21.69;64.00;101326.44;5030002;28;20483;-71
2023/07/14 08:32:15;;;;;;;4.87;0.97;;;;;;;21.74;61.25;101326.97;5034438;28;20490;-72
2023/07/14 08:34:42;;;;;;;4.40;0.87;;;;;;;21.69;62.95;101326.44;5033146;28;20463;-72
2023/07/14 08:37:08;;;;;;;4.40;0.93;;;;;;;21.74;62.49;101323.44;5033897;28;20463;-72
2023/07/14 08:39:35;;;;;;;5.43;0.73;;;;;;;21.71;65.77;101316.66;5029666;28;20546;-72
2023/07/14 08:42:32;;;;;;;5.47;1.37;;;;;;;21.81;66.36;101318.06;5029368;28;20475;-71
2023/07/14 08:45:15;;;;;;;5.77;0.90;;;;;;;21.84;65.43;101323.66;5033616;28;20482;-73
2023/07/14 08:47:54;;;;;;;5.17;1.07;;;;;;;21.89;63.22;101333.63;5030603;28;20968;-72
2023/07/14 08:50:25;;;;;;;4.47;0.93;;;;;;;21.99;63.58;101335.00;5035881;28;20477;-72
2023/07/14 08:52:54;;;;;;;4.30;0.80;;;;;;;21.97;58.46;101332.63;5029100;28;20479;-73
2023/07/14 08:55:23;;;;;;;5.23;1.20;;;;;;;21.92;60.78;101328.19;5032276;28;20459;-73
2023/07/14 08:57:55;;;;;;;4.33;0.83;;;;;;;22.00;59.13;101331.91;5039662;28;20941;-73
2023/07/14 09:00:28;;;;;;;4.30;0.70;;;;;;;22.05;60.41;101333.59;5035198;28;20463;-73
2023/07/14 09:03:07;;;;;;;8.30;1.20;;;;;;;22.04;59.68;101331.97;5036093;28;22059;-73
2023/07/14 09:05:37;;;;;;;5.27;0.90;;;;;;;22.14;59.22;101331.44;5040426;28;20505;-72
2023/07/14 09:08:05;;;;;;;4.50;1.00;;;;;;;22.19;60.61;101322.88;5031559;28;20465;-72
2023/07/14 09:10:41;;;;;;;4.40;1.00;;;;;;;22.30;58.36;101323.88;5025858;28;21016;-71
2023/07/14 09:13:16;;;;;;;4.60;1.10;;;;;;;22.27;58.23;101324.63;5032235;28;20498;-72
2023/07/14 09:15:44;;;;;;;4.60;1.00;;;;;;;22.26;57.84;101323.00;5039710;28;20486;-70
2023/07/14 09:18:27;;;;;;;4.40;0.70;;;;;;;22.20;59.20;101330.00;5033964;28;20467;-70
2023/07/14 09:21:13;;;;;;;4.77;1.13;;;;;;;22.22;59.50;101321.34;5030072;28;20466;-71
2023/07/14 09:24:14;;;;;;;5.87;1.20;;;;;;;22.24;59.29;101317.06;5035179;28;20523;-69
2023/07/14 09:26:47;;;;;;;5.60;1.10;;;;;;;22.24;56.74;101313.50;5033625;28;20544;-71
2023/07/14 09:29:17;;;;;;;7.10;1.57;;;;;;;22.19;56.81;101311.84;5036326;28;20474;-71
2023/07/14 09:31:53;;;;;;;5.60;1.37;;;;;;;22.25;56.21;101313.13;5038200;28;20528;-72
2023/07/14 09:34:27;;;;;;;4.40;0.97;;;;;;;22.28;56.25;101309.66;5027325;28;20537;-71
2023/07/14 09:36:55;;;;;;;4.20;0.63;;;;;;;22.56;57.16;101309.41;5031868;28;21052;-72
2023/07/14 09:39:27;;;;;;;4.70;1.00;;;;;;;22.80;57.53;101315.78;5030303;28;20457;-70
2023/07/14 09:41:57;;;;;;;4.60;0.90;;;;;;;23.07;55.83;101311.97;5031323;28;20495;-70
2023/07/14 09:44:24;;;;;;;8.53;1.00;;;;;;;23.24;55.05;101313.44;5031008;28;20553;-70
2023/07/14 09:46:52;;;;;;;4.10;0.70;;;;;;;23.26;54.79;101308.34;5032261;28;20979;-70
2023/07/14 09:49:32;;;;;;;4.57;0.90;;;;;;;23.42;55.65;101308.22;5026278;28;20838;-70
2023/07/14 09:52:20;;;;;;;4.43;0.90;;;;;;;23.58;54.22;101308.03;5030377;28;20483;-70
2023/07/14 09:54:53;;;;;;;4.30;0.83;;;;;;;23.83;53.85;101303.72;5031486;28;20463;-70
2023/07/14 09:57:22;;;;;;;4.13;0.80;;;;;;;23.97;52.50;101299.53;5030906;28;20467;-71
2023/07/14 09:59:56;;;;;;;4.70;0.97;;;;;;;24.03;51.26;101300.78;5033169;28;20447;-71
2023/07/14 10:02:28;;;;;;;6.40;1.17;;;;;;;23.96;53.05;101295.19;5033028;28;20474;-73
2023/07/14 10:05:03;;;;;;;6.03;1.17;;;;;;;23.94;51.22;101298.31;5033098;28;20883;-70
2023/07/14 10:07:40;;;;;;;4.30;0.87;;;;;;;23.75;51.03;101298.44;5031321;28;20950;-69
2023/07/14 10:10:09;;;;;;;5.50;1.00;;;;;;;23.66;52.58;101288.44;5027015;28;20479;-69
2023/07/14 10:12:40;;;;;;;4.83;1.30;;;;;;;23.57;51.92;101284.31;5034633;28;20487;-69
2023/07/14 10:15:30;;;;;;;4.03;0.80;;;;;;;23.64;52.33;101281.66;5031936;28;20463;-69
2023/07/14 10:17:58;;;;;;;4.20;0.97;;;;;;;23.44;55.84;101271.88;5032241;28;20814;-69
2023/07/14 10:20:27;;;;;;;5.30;0.97;;;;;;;23.58;54.06;101274.84;5026409;28;20497;-69
2023/07/14 10:22:56;;;;;;;6.27;1.00;;;;;;;23.73;50.18;101282.22;5030153;28;20538;-69
2023/07/14 10:25:23;;;;;;;4.80;1.10;;;;;;;23.89;49.95;101274.53;5027695;28;21145;-70
2023/07/14 10:27:57;;;;;;;4.57;0.90;;;;;;;23.95;48.83;101279.72;5031994;28;20538;-69
2023/07/14 10:30:47;;;;;;;5.03;1.00;;;;;;;23.86;48.94;101272.53;5026110;28;20463;-68
2023/07/14 10:33:21;;;;;;;4.23;0.83;;;;;;;23.76;51.30;101272.38;5032595;28;20435;-70
2023/07/14 10:35:57;;;;;;;4.40;0.90;;;;;;;23.80;54.38;101254.63;5033223;28;20493;-68
2023/07/14 10:38:28;;;;;;;5.10;1.10;;;;;;;23.84;54.80;101255.50;5032520;28;20448;-68
2023/07/14 10:41:00;;;;;;;4.43;0.97;;;;;;;23.85;52.58;101254.31;5032823;28;20475;-68
2023/07/14 10:43:32;;;;;;;6.03;1.03;;;;;;;23.98;51.36;101254.88;5029461;28;20955;-69
2023/07/14 10:46:03;;;;;;;5.43;1.13;;;;;;;24.14;50.86;101246.38;5029998;28;20454;-69
2023/07/14 10:48:33;;;;;;;5.33;1.10;;;;;;;24.37;50.64;101251.81;5032872;28;20921;-69
2023/07/14 10:51:06;;;;;;;6.27;1.60;;;;;;;24.54;47.81;101251.19;5032906;28;20483;-69
2023/07/14 10:53:38;;;;;;;4.80;0.90;;;;;;;24.74;49.58;101246.22;5033147;28;20709;-69
2023/07/14 10:56:12;;;;;;;4.50;1.07;;;;;;;24.91;52.86;101250.34;5033262;28;20526;-69
2023/07/14 10:58:47;;;;;;;5.10;1.10;;;;;;;25.05;50.44;101246.91;5027716;28;20453;-69
2023/07/14 11:01:21;;;;;;;4.20;0.80;;;;;;;24.87;47.32;101249.50;5025682;28;20487;-68
2023/07/14 11:03:54;;;;;;;5.20;1.07;;;;;;;24.56;45.06;101248.03;5029418;28;20460;-69
2023/07/14 11:06:26;;;;;;;5.30;1.17;;;;;;;24.39;45.81;101241.13;5030756;28;20534;-69
2023/07/14 11:08:56;;;;;;;4.60;1.03;;;;;;;24.34;49.38;101236.69;5028033;28;20479;-69
2023/07/14 11:11:33;;;;;;;5.00;1.30;;;;;;;24.60;47.96;101235.03;5031022;28;20574;-69
2023/07/14 11:14:14;;;;;;;5.30;1.30;;;;;;;24.77;46.30;101234.41;5029618;28;20454;-68
2023/07/14 11:16:49;;;;;;;5.33;1.37;;;;;;;24.74;46.97;101229.59;5025881;28;20523;-69
2023/07/14 11:19:24;;;;;;;4.37;1.00;;;;;;;24.88;49.29;101224.22;5031118;28;20459;-69
2023/07/14 11:22:05;;;;;;;4.30;0.90;;;;;;;25.11;49.44;101221.25;5016572;28;20466;-69
2023/07/14 11:24:39;;;;;;;4.50;0.90;;;;;;;25.63;49.01;101221.16;5029501;28;20952;-69
2023/07/14 11:27:23;;;;;;;7.07;1.50;;;;;;;26.20;43.73;101229.75;5031125;28;20542;-68
2023/07/14 11:29:54;;;;;;;6.07;1.27;;;;;;;26.36;43.29;101230.19;5031117;28;20471;-70
2023/07/14 11:32:25;;;;;;;4.70;1.20;;;;;;;26.42;44.01;101219.47;5029939;28;20912;-69
2023/07/14 11:35:00;;;;;;;4.70;1.33;;;;;;;26.81;42.57;101219.56;5015716;28;20440;-69